Time;durP1;ratioP1;P1;durP2;ratioP2;P2;SDS_P1;SDS_P2;PMS_P1;PMS_P2;Temp;Humidity;BMP_temperature;BMP_pressure;BME280_temperature;BME280_humidity;BME280_pressure;Samples;Min_cycle;Max_cycle;Signal;HPM_P1;HPM_P2
2021/04/11 00:00:50;;;;;;;13.77;4.57;;;;;;;9.47;57.57;100647.03;5073573;28;20429;-46
2021/04/11 00:03:18;;;;;;;20.43;4.80;;;;;;;9.05;58.68;100635.75;5073162;28;20455;-45
2021/04/11 00:05:46;;;;;;;10.47;3.60;;;;;;;9.00;58.72;100639.81;5074072;28;20541;-46
2021/04/11 00:08:13;;;;;;;9.87;3.10;;;;;;;9.07;58.90;100619.50;5073172;28;20719;-46
2021/04/11 00:10:42;;;;;;;11.47;4.67;;;;;;;9.04;58.93;100621.09;5073688;28;20582;-48
2021/04/11 00:13:12;;;;;;;12.50;3.97;;;;;;;9.26;59.11;100616.94;5073691;28;20515;-46
2021/04/11 00:15:40;;;;;;;12.63;3.97;;;;;;;9.51;58.17;100618.03;5077793;28;20488;-46
2021/04/11 00:18:06;;;;;;;7.03;3.63;;;;;;;9.15;59.26;100613.91;5076584;28;20462;-45
2021/04/11 00:20:33;;;;;;;12.33;3.90;;;;;;;9.54;58.73;100599.28;5077477;28;20461;-46
2021/04/11 00:23:00;;;;;;;17.67;7.13;;;;;;;9.56;58.76;100593.38;5078257;28;20537;-45
2021/04/11 00:25:28;;;;;;;14.43;4.73;;;;;;;9.42;59.54;100585.03;5077159;28;20548;-46
2021/04/11 00:27:56;;;;;;;11.70;4.27;;;;;;;9.59;59.32;100579.75;5078258;28;20508;-46
2021/04/11 00:30:23;;;;;;;18.30;4.80;;;;;;;9.51;59.62;100574.25;5077103;28;20478;-46
2021/04/11 00:32:54;;;;;;;12.17;5.00;;;;;;;9.62;59.21;100573.81;5078312;28;20566;-48
2021/04/11 00:35:21;;;;;;;12.93;5.07;;;;;;;9.96;58.70;100555.50;5077517;28;20534;-46
2021/04/11 00:37:47;;;;;;;12.03;5.70;;;;;;;9.53;59.84;100544.28;5078364;28;20440;-46
2021/04/11 00:40:20;;;;;;;15.00;5.80;;;;;;;9.64;59.62;100536.13;5076659;28;20457;-48
2021/04/11 00:42:49;;;;;;;13.97;5.93;;;;;;;9.48;60.68;100535.47;5077955;28;20480;-46
2021/04/11 00:45:23;;;;;;;15.63;6.17;;;;;;;9.99;59.35;100529.88;5076964;28;20540;-47
2021/04/11 00:47:51;;;;;;;10.53;5.80;;;;;;;9.98;59.72;100524.63;5078340;28;20548;-47
2021/04/11 00:50:18;;;;;;;14.43;6.83;;;;;;;10.15;59.46;100508.97;5076894;28;20475;-46
2021/04/11 00:52:45;;;;;;;18.73;7.30;;;;;;;10.04;59.56;100517.16;5077709;28;20561;-47
2021/04/11 00:55:13;;;;;;;16.13;7.00;;;;;;;10.31;59.58;100510.47;5076744;28;20453;-47
2021/04/11 00:57:41;;;;;;;23.93;9.97;;;;;;;10.22;59.84;100504.13;5077719;28;20512;-47
2021/04/11 01:00:09;;;;;;;20.03;7.70;;;;;;;10.20;60.27;100492.00;5076475;28;20941;-46
2021/04/11 01:02:37;;;;;;;31.00;12.40;;;;;;;10.09;60.53;100489.88;5077739;28;20479;-49
2021/04/11 01:05:12;;;;;;;25.23;9.50;;;;;;;10.29;60.29;100471.72;5076922;28;20449;-47
2021/04/11 01:07:40;;;;;;;21.63;9.90;;;;;;;10.59;59.53;100465.09;5077803;28;20454;-47
2021/04/11 01:10:10;;;;;;;30.67;13.00;;;;;;;10.41;60.15;100466.13;5076110;28;20843;-46
2021/04/11 01:12:37;;;;;;;20.73;9.87;;;;;;;10.21;60.42;100468.81;5074381;28;20787;-46
2021/04/11 01:15:06;;;;;;;22.50;10.20;;;;;;;10.17;60.84;100460.91;5076436;28;20475;-47
2021/04/11 01:17:34;;;;;;;28.60;11.10;;;;;;;10.47;59.82;100452.63;5077488;28;20821;-46
2021/04/11 01:20:00;;;;;;;21.27;10.40;;;;;;;10.24;60.91;100447.44;5076939;28;20771;-49
2021/04/11 01:22:33;;;;;;;28.03;12.07;;;;;;;10.51;60.46;100437.31;5076988;28;20754;-46
2021/04/11 01:25:05;;;;;;;23.30;11.50;;;;;;;10.17;61.64;100440.31;5076021;28;20451;-46
2021/04/11 01:27:33;;;;;;;25.57;10.93;;;;;;;10.16;61.96;100426.56;5077653;28;20780;-46
2021/04/11 01:30:00;;;;;;;25.67;11.40;;;;;;;10.58;60.88;100414.31;5076203;28;20772;-47
2021/04/11 01:32:27;;;;;;;26.87;11.60;;;;;;;10.84;59.82;100407.53;5077019;28;20470;-47
2021/04/11 01:34:54;;;;;;;22.70;11.50;;;;;;;10.55;60.32;100403.91;5076436;28;20456;-46
2021/04/11 01:37:22;;;;;;;30.47;16.00;;;;;;;10.74;60.30;100396.00;5077515;28;20455;-46
2021/04/11 01:39:49;;;;;;;34.87;14.67;;;;;;;10.57;61.19;100404.84;5075971;28;20474;-46
2021/04/11 01:42:17;;;;;;;26.60;12.90;;;;;;;11.08;60.08;100420.41;5076441;28;20453;-47
2021/04/11 01:44:46;;;;;;;30.17;15.10;;;;;;;11.00;59.93;100406.34;5075753;28;20785;-46
2021/04/11 01:47:13;;;;;;;29.53;14.77;;;;;;;10.66;61.14;100400.00;5077410;28;20429;-45
2021/04/11 01:49:41;;;;;;;33.13;14.70;;;;;;;11.01;60.59;100399.47;5076423;28;20503;-48
2021/04/11 01:52:12;;;;;;;37.53;17.80;;;;;;;11.25;59.75;100396.84;5076731;28;20950;-47
2021/04/11 01:54:39;;;;;;;36.10;15.97;;;;;;;11.15;60.17;100400.84;5075697;28;20482;-46
2021/04/11 01:57:08;;;;;;;36.83;17.83;;;;;;;11.32;60.16;100397.91;5076908;28;20527;-46
2021/04/11 01:59:36;;;;;;;36.70;15.57;;;;;;;10.87;61.80;100389.56;5075684;28;20479;-47
2021/04/11 02:02:05;;;;;;;37.63;17.63;;;;;;;10.94;61.33;100386.34;5076334;28;20482;-49
2021/04/11 02:04:32;;;;;;;37.50;15.57;;;;;;;11.10;60.90;100381.72;5076010;28;20470;-46
2021/04/11 02:07:03;;;;;;;35.93;15.90;;;;;;;11.46;60.17;100370.84;5076647;28;20550;-46
2021/04/11 02:09:31;;;;;;;33.00;15.47;;;;;;;11.41;60.40;100375.00;5075493;28;20457;-48
2021/04/11 02:11:59;;;;;;;37.80;17.53;;;;;;;11.59;59.93;100373.81;5076285;28;20545;-48
2021/04/11 02:14:26;;;;;;;40.37;17.80;;;;;;;11.54;59.62;100365.06;5075065;28;20970;-47
2021/04/11 02:16:55;;;;;;;37.53;17.27;;;;;;;11.82;59.67;100355.56;5076551;28;20429;-46
2021/04/11 02:19:24;;;;;;;38.83;18.63;;;;;;;11.45;60.26;100358.75;5075606;28;20482;-47
2021/04/11 02:21:53;;;;;;;37.13;18.27;;;;;;;11.50;60.09;100365.78;5076206;28;20482;-48
2021/04/11 02:24:20;;;;;;;37.10;17.97;;;;;;;11.47;60.63;100362.28;5075274;28;20478;-46
2021/04/11 02:26:47;;;;;;;36.00;18.40;;;;;;;11.82;59.68;100347.78;5076140;28;20470;-45
2021/04/11 02:29:15;;;;;;;41.20;19.27;;;;;;;11.68;59.92;100344.78;5074966;28;20482;-47
2021/04/11 02:31:42;;;;;;;28.20;14.23;;;;;;;11.37;61.15;100349.88;5075779;28;20932;-46
2021/04/11 02:34:13;;;;;;;38.47;16.77;;;;;;;11.57;60.37;100336.72;5075438;28;20509;-47
2021/04/11 02:36:43;;;;;;;35.33;16.73;;;;;;;11.93;59.34;100340.34;5075471;28;20454;-49
2021/04/11 02:39:12;;;;;;;33.00;17.47;;;;;;;11.87;59.85;100335.91;5074978;28;20483;-48
2021/04/11 02:41:40;;;;;;;36.83;17.50;;;;;;;11.96;59.77;100330.13;5075879;28;20479;-47
2021/04/11 02:44:07;;;;;;;35.83;17.70;;;;;;;11.92;60.02;100329.16;5074955;28;20478;-48
2021/04/11 02:46:35;;;;;;;33.33;17.53;;;;;;;11.48;61.05;100321.78;5076193;28;20481;-46
2021/04/11 02:49:02;;;;;;;36.10;17.53;;;;;;;11.74;60.34;100314.84;5075337;28;20768;-49
2021/04/11 02:51:31;;;;;;;36.90;17.53;;;;;;;12.18;59.46;100323.00;5075644;28;20467;-46
2021/04/11 02:53:59;;;;;;;30.43;16.07;;;;;;;11.53;61.26;100314.22;5074717;28;20493;-46
2021/04/11 02:56:27;;;;;;;33.60;16.97;;;;;;;11.83;60.32;100305.59;5075878;28;20557;-48
2021/04/11 02:58:54;;;;;;;34.63;17.23;;;;;;;11.78;60.45;100300.31;5074390;28;20919;-46
2021/04/11 03:01:26;;;;;;;34.90;17.97;;;;;;;11.74;61.34;100304.50;5075399;28;20485;-47
2021/04/11 03:03:54;;;;;;;34.90;17.17;;;;;;;11.81;60.71;100291.78;5074999;28;20479;-46
2021/04/11 03:06:22;;;;;;;33.70;16.33;;;;;;;11.57;61.44;100290.19;5075967;28;20459;-47
2021/04/11 03:08:53;;;;;;;38.77;18.40;;;;;;;12.01;60.15;100282.88;5074310;28;20471;-46
2021/04/11 03:11:24;;;;;;;37.50;17.33;;;;;;;12.21;59.67;100287.75;5075112;28;20477;-47
2021/04/11 03:13:51;;;;;;;37.87;19.40;;;;;;;11.97;60.06;100285.34;5074283;28;20772;-46
2021/04/11 03:16:18;;;;;;;32.97;16.50;;;;;;;12.32;58.92;100284.59;5075100;28;20458;-46
2021/04/11 03:18:45;;;;;;;35.30;16.43;;;;;;;12.46;58.60;100285.84;5075095;28;20470;-49
2021/04/11 03:21:11;;;;;;;38.60;18.20;;;;;;;11.97;60.27;100286.22;5075450;28;20823;-46
2021/04/11 03:23:38;;;;;;;21.00;10.57;;;;;;;11.78;61.03;100287.38;5074340;28;20904;-48
2021/04/11 03:26:11;;;;;;;35.70;17.97;;;;;;;11.86;61.01;100282.44;5075632;28;20462;-49
2021/04/11 03:28:41;;;;;;;29.90;16.10;;;;;;;11.98;60.54;100275.03;5074127;28;20471;-46
2021/04/11 03:31:12;;;;;;;38.30;17.80;;;;;;;12.30;59.87;100269.03;5074947;28;20486;-47
2021/04/11 03:33:40;;;;;;;38.87;17.80;;;;;;;12.09;60.37;100265.03;5074280;28;20470;-46
2021/04/11 03:36:08;;;;;;;38.37;19.87;;;;;;;12.17;60.64;100269.53;5075497;28;20524;-50
2021/04/11 03:38:36;;;;;;;35.20;17.90;;;;;;;11.93;61.08;100274.03;5074183;28;20445;-46
2021/04/11 03:41:02;;;;;;;36.17;18.07;;;;;;;11.87;61.31;100255.75;5074939;28;20447;-46
2021/04/11 03:43:34;;;;;;;40.77;20.77;;;;;;;12.50;59.77;100259.22;5074221;28;20478;-46
2021/04/11 03:46:09;;;;;;;40.20;19.43;;;;;;;12.72;59.10;100259.75;5075489;28;20819;-46
2021/04/11 03:48:40;;;;;;;35.57;19.57;;;;;;;12.58;58.99;100253.34;5078226;28;20916;-45
2021/04/11 03:51:10;;;;;;;41.87;19.67;;;;;;;12.68;59.02;100250.16;5079111;28;20561;-46
2021/04/11 03:53:42;;;;;;;44.57;21.13;;;;;;;12.62;59.20;100245.69;5078127;28;20479;-46
2021/04/11 03:56:12;;;;;;;34.20;18.23;;;;;;;12.22;60.52;100245.56;5079557;28;20455;-48
2021/04/11 03:58:42;;;;;;;36.73;18.93;;;;;;;12.18;60.71;100243.72;5078182;28;20478;-46
2021/04/11 04:01:14;;;;;;;36.03;19.87;;;;;;;12.41;60.19;100243.47;5079049;28;20480;-48
2021/04/11 04:03:43;;;;;;;41.73;21.07;;;;;;;12.46;60.12;100236.66;5078461;28;20481;-47
2021/04/11 04:06:11;;;;;;;34.80;19.80;;;;;;;12.50;60.40;100233.34;5079088;28;20786;-46
2021/04/11 04:08:38;;;;;;;43.20;21.00;;;;;;;12.45;60.45;100234.06;5077985;28;20581;-46
2021/04/11 04:11:12;;;;;;;40.63;21.23;;;;;;;12.48;60.63;100235.03;5078650;28;20775;-47
2021/04/11 04:13:50;;;;;;;43.90;20.57;;;;;;;12.36;60.64;100227.81;5077439;28;20488;-45
2021/04/11 04:16:18;;;;;;;42.50;21.73;;;;;;;12.43;60.84;100229.69;5078650;28;20759;-46
2021/04/11 04:18:52;;;;;;;49.97;22.90;;;;;;;12.55;60.40;100218.81;5077722;28;20473;-46
2021/04/11 04:21:29;;;;;;;47.10;22.63;;;;;;;12.46;60.78;100215.13;5078655;28;20507;-46
2021/04/11 04:24:02;;;;;;;42.27;22.47;;;;;;;12.42;60.61;100221.94;5077744;28;20510;-47
2021/04/11 04:26:37;;;;;;;39.70;21.07;;;;;;;12.29;61.47;100218.13;5078869;28;20455;-46
2021/04/11 04:29:15;;;;;;;41.70;22.30;;;;;;;12.31;61.51;100219.03;5077233;28;20484;-47
2021/04/11 04:31:51;;;;;;;44.93;22.80;;;;;;;12.44;60.85;100209.91;5078209;28;20814;-47
2021/04/11 04:34:25;;;;;;;44.43;23.80;;;;;;;12.39;61.85;100208.91;5077807;28;20536;-46
2021/04/11 04:37:02;;;;;;;43.43;23.20;;;;;;;12.77;60.15;100208.97;5078580;28;20458;-46
2021/04/11 04:39:33;;;;;;;46.67;25.10;;;;;;;12.69;60.17;100208.81;5077288;28;20469;-47
2021/04/11 04:42:11;;;;;;;49.60;24.77;;;;;;;12.69;61.02;100215.69;5078283;28;20478;-46
2021/04/11 04:44:47;;;;;;;47.70;24.93;;;;;;;12.39;62.10;100211.50;5077155;28;20473;-46
2021/04/11 04:47:17;;;;;;;48.90;24.97;;;;;;;12.35;62.25;100200.19;5078522;28;20466;-46
2021/04/11 04:49:50;;;;;;;49.63;24.50;;;;;;;12.53;61.13;100210.16;5077332;28;20507;-46
2021/04/11 04:52:19;;;;;;;53.03;25.67;;;;;;;12.23;61.80;100200.75;5078194;28;20485;-45
2021/04/11 04:54:47;;;;;;;53.80;26.17;;;;;;;12.37;62.10;100202.81;5076924;28;20483;-46
2021/04/11 04:57:17;;;;;;;57.53;28.50;;;;;;;12.95;60.43;100197.31;5078273;28;20500;-47
2021/04/11 04:59:50;;;;;;;49.33;27.40;;;;;;;12.76;61.09;100199.47;5076327;28;20510;-46
2021/04/11 05:02:17;;;;;;;50.60;26.97;;;;;;;12.63;61.22;100200.00;5077897;28;20859;-46
2021/04/11 05:04:48;;;;;;;53.33;27.90;;;;;;;13.19;59.89;100196.97;5076998;28;20754;-45
2021/04/11 05:07:18;;;;;;;57.07;27.43;;;;;;;12.95;60.72;100197.31;5077979;28;20459;-47
2021/04/11 05:09:48;;;;;;;53.10;28.47;;;;;;;12.59;62.16;100199.06;5076722;28;20466;-46
2021/04/11 05:12:20;;;;;;;57.47;28.33;;;;;;;12.69;61.14;100198.47;5077376;28;20475;-47
2021/04/11 05:14:51;;;;;;;52.73;26.67;;;;;;;12.62;61.66;100188.75;5076395;28;20492;-46
2021/04/11 05:17:21;;;;;;;53.60;26.30;;;;;;;12.32;62.82;100192.38;5077788;28;20451;-47
2021/04/11 05:19:51;;;;;;;54.77;28.07;;;;;;;12.37;62.32;100189.88;5076769;28;20681;-45
2021/04/11 05:22:21;;;;;;;59.37;28.30;;;;;;;12.98;61.11;100186.16;5077475;28;20474;-46
2021/04/11 05:24:50;;;;;;;61.83;31.80;;;;;;;13.01;60.70;100184.50;5076432;28;20759;-46
2021/04/11 05:27:19;;;;;;;59.93;28.93;;;;;;;12.88;61.06;100190.25;5077446;28;20511;-46
2021/04/11 05:29:52;;;;;;;62.43;30.00;;;;;;;12.81;61.54;100184.03;5076077;28;20482;-47
2021/04/11 05:32:19;;;;;;;69.80;33.80;;;;;;;13.13;60.59;100175.25;5077401;28;20561;-46
2021/04/11 05:34:46;;;;;;;64.00;31.83;;;;;;;13.34;60.49;100180.03;5076258;28;20492;-45
2021/04/11 05:37:26;;;;;;;67.97;32.33;;;;;;;13.54;59.87;100172.69;5077407;28;20546;-46
2021/04/11 05:40:01;;;;;;;66.47;33.90;;;;;;;13.16;60.89;100164.94;5076141;28;20487;-48
2021/04/11 05:42:32;;;;;;;56.37;29.33;;;;;;;12.67;62.18;100170.78;5077182;28;20577;-47
2021/04/11 05:45:09;;;;;;;64.83;32.67;;;;;;;12.85;61.96;100156.50;5076312;28;20566;-46
2021/04/11 05:47:54;;;;;;;61.70;30.50;;;;;;;12.81;62.12;100168.50;5077294;28;20460;-45
2021/04/11 05:50:23;;;;;;;69.60;32.67;;;;;;;13.53;59.95;100154.53;5075640;28;20560;-46
2021/04/11 05:52:55;;;;;;;70.47;32.57;;;;;;;13.46;60.66;100167.38;5077311;28;20486;-47
2021/04/11 05:55:23;;;;;;;66.53;32.27;;;;;;;13.63;60.04;100159.91;5076146;28;20771;-46
2021/04/11 05:57:54;;;;;;;69.90;35.50;;;;;;;13.67;59.70;100159.97;5077041;28;20460;-47
2021/04/11 06:00:23;;;;;;;78.07;35.07;;;;;;;13.54;60.18;100156.28;5075441;28;20488;-47
2021/04/11 06:02:52;;;;;;;74.13;35.57;;;;;;;13.36;60.26;100155.91;5076566;28;20993;-48
2021/04/11 06:05:25;;;;;;;83.53;37.00;;;;;;;13.48;60.05;100152.72;5075380;28;20481;-47
2021/04/11 06:07:55;;;;;;;75.13;36.03;;;;;;;13.57;60.36;100159.81;5076948;28;20554;-47
2021/04/11 06:10:25;;;;;;;75.53;36.43;;;;;;;13.71;59.66;100154.00;5074368;28;20920;-47
2021/04/11 06:12:56;;;;;;;72.33;36.10;;;;;;;13.33;60.76;100153.25;5076259;28;20456;-45
2021/04/11 06:15:27;;;;;;;76.93;36.40;;;;;;;13.67;60.22;100157.38;5074907;28;20485;-46
2021/04/11 06:17:54;;;;;;;78.23;36.80;;;;;;;13.74;59.84;100152.34;5076849;28;20559;-48
2021/04/11 06:20:22;;;;;;;75.23;37.23;;;;;;;13.68;60.40;100148.78;5075163;28;20474;-46
2021/04/11 06:22:53;;;;;;;71.20;36.10;;;;;;;14.04;59.22;100142.50;5076501;28;21031;-45
2021/04/11 06:25:27;;;;;;;68.57;36.70;;;;;;;14.32;58.34;100155.97;5075188;28;20446;-47
2021/04/11 06:27:58;;;;;;;72.10;36.53;;;;;;;13.95;59.30;100148.41;5076233;28;20793;-48
2021/04/11 06:30:28;;;;;;;68.00;35.40;;;;;;;13.75;60.27;100155.81;5074063;28;20499;-49
2021/04/11 06:32:58;;;;;;;74.80;37.27;;;;;;;13.89;59.99;100154.34;5076378;28;20781;-45
2021/04/11 06:35:26;;;;;;;80.60;37.83;;;;;;;14.22;59.41;100152.34;5074808;28;20486;-47
2021/04/11 06:37:56;;;;;;;71.83;36.63;;;;;;;13.67;60.76;100147.00;5076272;28;20561;-46
2021/04/11 06:40:36;;;;;;;74.70;38.07;;;;;;;14.27;59.64;100148.13;5074680;28;20590;-49
2021/04/11 06:43:29;;;;;;;76.87;37.00;;;;;;;13.80;60.91;100149.03;5075062;28;20487;-46
2021/04/11 06:46:00;;;;;;;78.10;37.50;;;;;;;14.22;59.82;100147.16;5076172;28;20456;-45
2021/04/11 06:48:57;;;;;;;74.53;37.47;;;;;;;14.26;59.39;100146.34;5074946;28;20464;-46
2021/04/11 06:51:35;;;;;;;75.67;36.93;;;;;;;13.62;60.88;100154.69;5075764;28;20476;-46
2021/04/11 06:54:30;;;;;;;77.40;38.30;;;;;;;14.25;59.81;100159.31;5074696;28;20507;-46
2021/04/11 06:57:07;;;;;;;71.23;35.00;;;;;;;13.83;61.33;100159.44;5075927;28;20773;-46
2021/04/11 06:59:43;;;;;;;67.10;34.50;;;;;;;13.79;61.28;100160.22;5074766;28;20480;-46
2021/04/11 07:02:32;;;;;;;69.17;35.27;;;;;;;13.42;62.16;100151.66;5075612;28;20749;-46
2021/04/11 07:05:06;;;;;;;60.03;32.20;;;;;;;13.25;62.36;100154.81;5074531;28;20479;-45
2021/04/11 07:07:55;;;;;;;64.87;33.67;;;;;;;13.67;61.57;100162.56;5075638;28;20888;-45
2021/04/11 07:10:32;;;;;;;66.90;33.30;;;;;;;14.03;60.60;100158.91;5074098;28;20483;-46
2021/04/11 07:13:38;;;;;;;57.70;32.23;;;;;;;13.69;61.41;100155.72;5075369;28;20486;-46
2021/04/11 07:16:41;;;;;;;65.07;33.47;;;;;;;13.77;61.26;100156.72;5074858;28;20455;-47
2021/04/11 07:19:44;;;;;;;67.33;33.13;;;;;;;13.39;62.75;100146.44;5074471;28;20453;-46
2021/04/11 07:22:59;;;;;;;62.90;32.10;;;;;;;13.49;62.23;100145.81;5074787;28;20916;-46
2021/04/11 07:25:34;;;;;;;58.27;31.00;;;;;;;13.81;61.44;100140.38;5066392;28;20778;-45
2021/04/11 07:28:18;;;;;;;58.30;32.00;;;;;;;13.96;61.65;100149.28;5063830;28;20878;-46
2021/04/11 07:30:48;;;;;;;57.13;30.90;;;;;;;13.94;61.36;100141.47;5065334;28;20469;-48
2021/04/11 07:33:57;;;;;;;62.63;33.57;;;;;;;13.86;61.86;100146.53;5068125;28;20538;-48
2021/04/11 07:37:03;;;;;;;60.67;32.80;;;;;;;13.87;62.14;100143.09;5069162;28;20513;-45
2021/04/11 07:39:50;;;;;;;54.73;29.87;;;;;;;14.04;61.69;100147.69;5053611;28;20564;-46
2021/04/11 07:42:46;;;;;;;63.87;33.27;;;;;;;14.05;62.05;100154.63;5064097;28;20472;-46
2021/04/11 07:45:36;;;;;;;59.67;32.30;;;;;;;13.65;62.47;100147.00;5073426;28;20945;-47
2021/04/11 07:48:30;;;;;;;61.00;32.70;;;;;;;13.97;61.80;100145.84;5073833;28;20467;-47
2021/04/11 07:51:18;;;;;;;64.23;34.43;;;;;;;14.42;60.91;100137.09;5073074;28;20535;-46
2021/04/11 07:54:21;;;;;;;71.90;37.30;;;;;;;14.45;60.81;100142.34;5073913;28;20472;-45
2021/04/11 07:57:09;;;;;;;76.87;37.97;;;;;;;14.07;62.02;100145.16;5075064;28;20468;-47
2021/04/11 08:00:05;;;;;;;73.10;38.53;;;;;;;14.33;61.24;100142.16;5059520;28;20580;-46
2021/04/11 08:02:46;;;;;;;73.17;36.30;;;;;;;13.98;62.19;100156.25;5061745;28;20482;-46
2021/04/11 08:05:22;;;;;;;79.50;38.60;;;;;;;14.37;61.90;100151.75;5073354;28;20481;-48
2021/04/11 08:07:59;;;;;;;77.37;39.90;;;;;;;14.74;60.29;100153.13;5075035;28;20451;-49
2021/04/11 08:11:04;;;;;;;79.80;37.03;;;;;;;14.72;60.50;100151.41;5073939;28;20503;-48
2021/04/11 08:13:57;;;;;;;75.33;37.87;;;;;;;14.12;62.47;100161.69;5073444;28;20491;-46
2021/04/11 08:16:53;;;;;;;75.23;38.80;;;;;;;14.61;61.55;100171.13;5060522;28;20472;-46
2021/04/11 08:19:51;;;;;;;72.07;35.47;;;;;;;14.31;62.11;100178.44;5073055;28;20473;-45
2021/04/11 08:22:37;;;;;;;64.53;36.30;;;;;;;14.02;63.52;100180.53;5074457;28;20476;-48
2021/04/11 08:25:18;;;;;;;75.20;38.50;;;;;;;15.11;60.68;100177.09;5073629;28;20567;-46
2021/04/11 08:28:19;;;;;;;71.53;35.20;;;;;;;13.85;63.85;100180.22;5074730;28;20461;-48
2021/04/11 08:30:55;;;;;;;65.40;34.73;;;;;;;13.56;65.22;100168.44;5073716;28;20456;-52
2021/04/11 08:33:52;;;;;;;67.60;34.30;;;;;;;14.36;63.29;100164.69;5073395;28;20477;-46
2021/04/11 08:36:57;;;;;;;60.93;32.03;;;;;;;14.16;64.09;100179.03;5065055;28;20464;-46
2021/04/11 08:39:36;;;;;;;58.30;32.23;;;;;;;14.34;63.72;100172.44;5042846;28;20481;-46
2021/04/11 08:42:10;;;;;;;59.50;31.63;;;;;;;13.94;65.35;100179.50;5077938;28;20485;-48
2021/04/11 08:44:48;;;;;;;66.30;35.43;;;;;;;14.54;63.30;100170.16;5077027;28;20914;-47
2021/04/11 08:47:26;;;;;;;64.60;32.90;;;;;;;14.51;63.15;100175.28;5078374;28;20458;-46
2021/04/11 08:49:58;;;;;;;62.07;33.50;;;;;;;14.60;64.26;100166.78;5077031;28;20489;-46
2021/04/11 08:52:35;;;;;;;54.10;28.00;;;;;;;14.94;62.78;100175.13;5078019;28;20502;-46
2021/04/11 08:55:08;;;;;;;56.63;32.03;;;;;;;15.15;62.80;100163.28;5076376;28;20574;-47
2021/04/11 08:57:39;;;;;;;52.63;29.27;;;;;;;14.98;63.07;100176.06;5077961;28;20465;-46
2021/04/11 09:00:12;;;;;;;55.13;31.30;;;;;;;15.41;62.21;100169.66;5076567;28;20852;-45
2021/04/11 09:03:08;;;;;;;55.03;33.07;;;;;;;16.07;60.48;100174.78;5078063;28;20569;-48
2021/04/11 09:05:43;;;;;;;54.27;29.20;;;;;;;15.32;63.15;100165.22;5077332;28;20462;-48
2021/04/11 09:08:21;;;;;;;48.90;28.77;;;;;;;14.93;62.54;100167.31;5076777;28;20501;-50
2021/04/11 09:11:00;;;;;;;53.37;27.60;;;;;;;15.09;62.42;100171.00;5077304;28;20458;-48
2021/04/11 09:13:37;;;;;;;48.67;27.40;;;;;;;15.32;62.52;100175.63;5076286;28;20852;-47
2021/04/11 09:16:12;;;;;;;50.83;26.20;;;;;;;14.68;63.85;100178.16;5065327;28;20952;-49
2021/04/11 09:18:51;;;;;;;45.23;26.50;;;;;;;15.12;62.39;100184.03;5056470;28;20479;-46
2021/04/11 09:21:31;;;;;;;42.47;25.73;;;;;;;15.60;60.85;100170.78;5066446;28;20954;-46
2021/04/11 09:24:02;;;;;;;48.70;27.80;;;;;;;15.38;61.52;100176.59;5076584;28;20486;-49
2021/04/11 09:27:07;;;;;;;42.00;24.90;;;;;;;15.64;61.04;100173.41;5077705;28;20458;-49
2021/04/11 09:29:38;;;;;;;38.20;22.93;;;;;;;15.13;61.76;100180.59;5076143;28;20478;-46
2021/04/11 09:32:17;;;;;;;40.87;22.90;;;;;;;15.43;61.93;100181.84;5077076;28;20497;-46
2021/04/11 09:35:04;;;;;;;40.93;22.30;;;;;;;15.05;62.87;100195.19;5076045;28;20486;-47
2021/04/11 09:37:53;;;;;;;28.50;15.87;;;;;;;15.25;62.30;100196.34;5077272;28;20826;-49
2021/04/11 09:40:31;;;;;;;29.40;18.70;;;;;;;15.47;61.58;100194.03;5075792;28;20482;-48
2021/04/11 09:43:13;;;;;;;27.03;16.90;;;;;;;15.31;61.62;100192.06;5076974;28;20561;-46
2021/04/11 09:45:55;;;;;;;24.27;15.10;;;;;;;15.29;61.53;100186.00;5076354;28;20774;-48
2021/04/11 09:48:50;;;;;;;20.43;12.37;;;;;;;15.43;61.19;100181.84;5075799;28;20745;-47
2021/04/11 09:51:34;;;;;;;21.20;13.40;;;;;;;15.86;60.62;100183.19;5054130;28;20474;-46
2021/04/11 09:54:12;;;;;;;18.97;12.40;;;;;;;15.69;60.94;100181.25;5075386;28;20563;-46
2021/04/11 09:56:49;;;;;;;17.40;12.60;;;;;;;16.13;59.81;100193.06;5077165;28;20541;-46
2021/04/11 09:59:30;;;;;;;16.07;9.43;;;;;;;15.27;61.27;100191.16;5074268;28;20482;-46
2021/04/11 10:02:05;;;;;;;15.73;10.10;;;;;;;15.87;59.14;100195.34;5076450;28;20482;-46
2021/04/11 10:04:43;;;;;;;15.80;10.20;;;;;;;15.83;59.22;100198.78;5075381;28;20474;-48
2021/04/11 10:07:22;;;;;;;12.83;7.37;;;;;;;15.31;60.65;100205.94;5076991;28;20451;-46
2021/04/11 10:09:55;;;;;;;16.03;8.17;;;;;;;14.88;61.32;100215.72;5075481;28;20486;-48
2021/04/11 10:12:37;;;;;;;12.10;6.50;;;;;;;14.88;62.53;100211.41;5076207;28;20517;-51
2021/04/11 10:15:10;;;;;;;16.40;9.30;;;;;;;14.55;62.04;100217.75;5075138;28;20608;-46
2021/04/11 10:17:48;;;;;;;13.50;7.13;;;;;;;14.35;62.08;100230.41;5076685;28;20775;-47
2021/04/11 10:20:18;;;;;;;24.63;11.97;;;;;;;14.28;62.10;100237.19;5074841;28;20490;-49
2021/04/11 10:22:53;;;;;;;8.63;4.97;;;;;;;13.76;62.52;100266.47;5075733;28;21014;-46
2021/04/11 10:25:39;;;;;;;19.40;11.40;;;;;;;13.60;62.14;100260.06;5074424;28;20561;-46
2021/04/11 10:28:14;;;;;;;17.23;8.60;;;;;;;14.34;61.02;100250.28;5075189;28;20472;-48
2021/04/11 10:30:43;;;;;;;9.73;5.20;;;;;;;14.32;60.58;100263.22;5075885;28;20466;-49
2021/04/11 10:33:15;;;;;;;18.10;10.93;;;;;;;14.79;58.88;100251.09;5075033;28;20478;-47
2021/04/11 10:35:45;;;;;;;15.17;8.57;;;;;;;14.84;59.27;100251.16;5075945;28;20483;-51
2021/04/11 10:38:15;;;;;;;10.73;6.80;;;;;;;14.68;58.78;100250.84;5075123;28;20452;-45
2021/04/11 10:41:10;;;;;;;12.53;5.37;;;;;;;13.90;59.52;100249.44;5076094;28;20447;-50
2021/04/11 10:43:52;;;;;;;12.40;6.90;;;;;;;14.15;59.47;100249.94;5052850;28;20471;-47
2021/04/11 10:46:22;;;;;;;10.20;6.30;;;;;;;14.39;58.72;100251.25;5056017;28;20465;-49
2021/04/11 10:49:11;;;;;;;11.60;7.77;;;;;;;14.40;59.61;100265.06;5054867;28;20521;-52
2021/04/11 10:51:49;;;;;;;8.57;5.27;;;;;;;14.16;59.96;100264.66;5055749;28;20485;-48
2021/04/11 10:54:29;;;;;;;9.20;6.00;;;;;;;14.12;59.36;100264.56;5054584;28;20490;-48
2021/04/11 10:57:33;;;;;;;11.13;7.00;;;;;;;14.17;58.42;100268.97;5055119;28;20878;-51
2021/04/11 11:00:09;;;;;;;6.60;3.27;;;;;;;13.26;60.06;100288.66;5022945;28;20484;-48
2021/04/11 11:03:02;;;;;;;11.70;7.43;;;;;;;13.56;60.20;100292.84;5035684;28;20483;-47
2021/04/11 11:05:38;;;;;;;11.50;4.40;;;;;;;13.28;60.38;100296.47;5028287;28;20935;-47
2021/04/11 11:08:19;;;;;;;9.60;5.37;;;;;;;13.07;60.59;100305.47;5043854;28;20477;-48
2021/04/11 11:11:02;;;;;;;8.43;3.80;;;;;;;13.14;60.48;100298.72;5074825;28;20468;-47
2021/04/11 11:13:40;;;;;;;13.33;7.00;;;;;;;13.04;60.25;100311.47;5073133;28;20585;-47
2021/04/11 11:16:16;;;;;;;12.07;6.30;;;;;;;12.90;60.43;100305.94;5075249;28;21013;-46
2021/04/11 11:18:52;;;;;;;15.40;7.53;;;;;;;12.55;61.86;100311.97;5074130;28;20480;-45
2021/04/11 11:21:51;;;;;;;13.70;7.30;;;;;;;12.01;61.54;100321.66;5075127;28;20489;-48
2021/04/11 11:24:31;;;;;;;13.67;8.60;;;;;;;12.18;61.76;100326.47;5074062;28;20546;-47
2021/04/11 11:27:17;;;;;;;8.80;4.60;;;;;;;12.54;60.42;100323.16;5075474;28;20456;-46
2021/04/11 11:29:56;;;;;;;17.13;9.00;;;;;;;12.29;60.82;100326.78;5074014;28;20471;-48
2021/04/11 11:32:30;;;;;;;15.30;9.00;;;;;;;12.23;61.38;100339.53;5075252;28;20479;-47
2021/04/11 11:35:00;;;;;;;7.33;4.37;;;;;;;11.76;62.10;100345.91;5073874;28;20491;-46
2021/04/11 11:37:47;;;;;;;19.33;8.50;;;;;;;11.97;61.16;100342.22;5075461;28;20484;-49
2021/04/11 11:40:20;;;;;;;13.43;6.33;;;;;;;11.87;61.10;100359.16;5073261;28;20478;-47
2021/04/11 11:43:00;;;;;;;9.20;4.60;;;;;;;11.59;61.82;100355.75;5071691;28;20497;-46
2021/04/11 11:45:33;;;;;;;16.47;7.37;;;;;;;11.86;60.72;100360.00;5054921;28;20542;-48
2021/04/11 11:48:26;;;;;;;10.33;4.77;;;;;;;12.01;60.14;100357.84;5055016;28;20992;-46